createdAt,value
2023-12-24T00:01:09.449Z,42.04
2023-12-24T00:03:41.370Z,42.14
2023-12-24T00:06:12.660Z,42.74
2023-12-24T00:08:43.214Z,42.84
2023-12-24T00:11:13.760Z,42.70
2023-12-24T00:13:44.374Z,42.89
2023-12-24T00:16:14.843Z,42.71
2023-12-24T00:18:45.486Z,42.70
2023-12-24T00:21:16.940Z,42.78
2023-12-24T00:23:49.067Z,42.78
2023-12-24T00:26:20.626Z,42.98
2023-12-24T00:28:53.044Z,42.87
2023-12-24T00:31:23.653Z,43.15
2023-12-24T00:33:54.197Z,43.12
2023-12-24T00:36:24.867Z,42.83
2023-12-24T00:38:55.967Z,43.30
2023-12-24T00:41:26.700Z,43.43
2023-12-24T00:43:57.214Z,42.95
2023-12-24T00:46:28.207Z,43.38
2023-12-24T00:48:58.765Z,43.48
2023-12-24T00:51:29.482Z,43.57
2023-12-24T00:54:00.118Z,43.48
2023-12-24T00:56:30.888Z,43.33
2023-12-24T00:59:01.401Z,43.63
2023-12-24T01:01:32.183Z,43.66
2023-12-24T01:04:02.799Z,43.82
2023-12-24T01:06:33.488Z,43.82
2023-12-24T01:09:04.093Z,44.22
2023-12-24T01:11:34.894Z,44.39
2023-12-24T01:14:05.480Z,44.13
2023-12-24T01:16:36.257Z,44.01
2023-12-24T01:19:06.841Z,44.17
2023-12-24T01:21:37.873Z,43.79
2023-12-24T01:24:09.576Z,43.67
2023-12-24T01:26:40.703Z,44.10
2023-12-24T01:29:11.319Z,43.82
2023-12-24T01:31:43.446Z,43.99
2023-12-24T01:34:14.086Z,43.90
2023-12-24T01:36:44.865Z,44.23
2023-12-24T01:39:16.748Z,43.97
2023-12-24T01:41:50.119Z,43.98
2023-12-24T01:44:20.738Z,44.01
2023-12-24T01:46:51.484Z,44.29
2023-12-24T01:49:22.088Z,43.87
2023-12-24T01:51:53.626Z,43.99
2023-12-24T01:54:25.259Z,44.05
2023-12-24T01:56:55.919Z,44.04
2023-12-24T01:59:27.114Z,43.87
2023-12-24T02:01:58.085Z,43.89
2023-12-24T02:04:28.709Z,43.95
2023-12-24T02:06:59.537Z,44.17
2023-12-24T02:09:30.269Z,44.20
2023-12-24T02:12:00.939Z,44.13
2023-12-24T02:14:31.695Z,44.22
2023-12-24T02:17:03.835Z,44.58
2023-12-24T02:19:34.784Z,44.01
2023-12-24T02:22:05.540Z,44.00
2023-12-24T02:24:36.351Z,44.17
2023-12-24T02:27:30.106Z,44.33
2023-12-24T02:30:07.874Z,44.17
2023-12-24T02:32:41.743Z,44.37
2023-12-24T02:35:14.255Z,44.56
2023-12-24T02:37:46.435Z,44.16
2023-12-24T02:40:17.227Z,44.48
2023-12-24T02:42:48.561Z,45.02
2023-12-24T02:45:19.390Z,44.95
2023-12-24T02:47:50.344Z,44.38
2023-12-24T02:50:23.215Z,44.68
2023-12-24T02:52:54.298Z,44.22
2023-12-24T02:55:27.061Z,44.33
2023-12-24T02:57:57.536Z,44.48
2023-12-24T03:00:28.245Z,44.39
2023-12-24T03:02:58.809Z,44.40
2023-12-24T03:05:29.516Z,44.24
2023-12-24T03:08:00.201Z,44.41
2023-12-24T03:10:30.769Z,44.21
2023-12-24T03:13:01.375Z,44.08
2023-12-24T03:15:31.918Z,44.42
2023-12-24T03:18:04.035Z,44.67
2023-12-24T03:20:34.717Z,44.46
2023-12-24T03:23:05.346Z,44.55
2023-12-24T03:25:35.917Z,44.80
2023-12-24T03:28:06.578Z,44.80
2023-12-24T03:30:37.101Z,44.82
2023-12-24T03:33:07.878Z,45.55
2023-12-24T03:35:38.582Z,46.10
2023-12-24T03:38:09.340Z,45.33
2023-12-24T03:40:40.149Z,45.78
2023-12-24T03:43:10.959Z,45.33
2023-12-24T03:45:41.513Z,45.43
2023-12-24T03:48:15.571Z,45.73
2023-12-24T03:50:46.794Z,45.53
2023-12-24T03:53:17.502Z,45.38
2023-12-24T03:55:48.280Z,45.35
2023-12-24T03:58:18.976Z,45.42
2023-12-24T04:00:49.741Z,45.17
2023-12-24T04:03:20.381Z,44.99
2023-12-24T04:05:51.253Z,45.34
2023-12-24T04:08:21.983Z,45.04
2023-12-24T04:10:52.562Z,45.21
2023-12-24T04:13:23.293Z,45.34
2023-12-24T04:15:53.817Z,45.17
2023-12-24T04:18:24.669Z,45.04
2023-12-24T04:20:55.633Z,45.01
2023-12-24T04:23:26.475Z,45.17
2023-12-24T04:25:57.127Z,45.17
2023-12-24T04:28:28.751Z,44.87
2023-12-24T04:30:59.939Z,45.28
2023-12-24T04:33:43.172Z,45.43
2023-12-24T04:36:34.226Z,45.60
2023-12-24T04:39:28.094Z,45.42
2023-12-24T04:42:19.090Z,45.30
2023-12-24T04:44:49.786Z,45.02
2023-12-24T04:47:20.305Z,45.40
2023-12-24T04:49:51.469Z,45.34
2023-12-24T04:52:22.555Z,45.28
2023-12-24T04:54:53.141Z,45.60
2023-12-24T04:57:24.431Z,45.46
2023-12-24T05:00:14.542Z,45.65
2023-12-24T05:02:49.095Z,45.80
2023-12-24T05:05:20.353Z,45.62
2023-12-24T05:07:51.041Z,45.51
2023-12-24T05:10:21.709Z,45.44
2023-12-24T05:12:53.666Z,45.36
2023-12-24T05:15:26.501Z,45.54
2023-12-24T05:17:58.596Z,45.82
2023-12-24T05:20:29.423Z,45.88
2023-12-24T05:23:01.591Z,45.61
2023-12-24T05:25:32.221Z,45.87
2023-12-24T05:28:02.750Z,45.86
2023-12-24T05:30:33.266Z,45.72
2023-12-24T05:33:04.066Z,45.90
2023-12-24T05:35:35.046Z,45.90
2023-12-24T05:38:06.106Z,45.83
2023-12-24T05:40:36.766Z,46.15
2023-12-24T05:43:07.310Z,46.01
2023-12-24T05:45:38.791Z,46.81
2023-12-24T05:48:09.888Z,46.33
2023-12-24T05:50:40.370Z,46.12
2023-12-24T05:53:11.005Z,46.45
2023-12-24T05:55:41.517Z,46.51
2023-12-24T05:58:12.065Z,46.61
2023-12-24T06:00:42.712Z,45.85
2023-12-24T06:03:13.350Z,46.47
2023-12-24T06:05:44.101Z,46.30
2023-12-24T06:08:20.902Z,45.99
2023-12-24T06:10:51.497Z,46.48
2023-12-24T06:13:22.073Z,45.61
2023-12-24T06:15:52.834Z,46.13
2023-12-24T06:18:23.563Z,45.89
2023-12-24T06:20:54.314Z,46.01
2023-12-24T06:23:24.835Z,45.96
2023-12-24T06:25:55.785Z,45.74
2023-12-24T06:28:26.137Z,45.88
2023-12-24T06:30:56.871Z,46.15
2023-12-24T12:13:01.388Z,45.20
2023-12-24T12:15:32.056Z,45.30
2023-12-24T12:18:02.665Z,45.11
2023-12-24T12:20:34.277Z,44.91
2023-12-24T12:23:05.192Z,44.74
2023-12-24T12:25:35.876Z,44.66
2023-12-24T12:28:07.271Z,44.85
2023-12-24T12:30:37.558Z,44.84
2023-12-24T12:33:08.707Z,44.61
2023-12-24T12:35:39.535Z,44.69
2023-12-24T12:38:10.351Z,44.53
2023-12-24T12:40:46.985Z,44.31
2023-12-24T12:43:20.917Z,44.10
2023-12-24T12:45:53.038Z,44.17
2023-12-24T12:48:24.488Z,44.22
2023-12-24T12:50:55.519Z,44.33
2023-12-24T12:53:30.174Z,44.31
2023-12-24T12:56:07.512Z,44.28
2023-12-24T12:58:38.203Z,43.98
2023-12-24T13:01:09.224Z,44.01
2023-12-24T13:03:42.676Z,44.36
2023-12-24T13:06:15.635Z,44.29
2023-12-24T13:08:46.416Z,44.50
2023-12-24T13:11:17.355Z,44.47
2023-12-24T13:13:47.838Z,44.49
2023-12-24T13:16:18.492Z,44.77
2023-12-24T13:18:49.229Z,44.55
2023-12-24T13:21:19.832Z,44.44
2023-12-24T13:23:52.271Z,44.63
2023-12-24T13:26:28.308Z,44.49
2023-12-24T13:29:01.902Z,44.62
2023-12-24T13:31:33.223Z,44.54
2023-12-24T13:34:03.892Z,44.80
2023-12-24T13:36:34.640Z,44.69
2023-12-24T13:39:05.122Z,44.73
2023-12-24T13:41:36.532Z,44.72
2023-12-24T13:44:07.443Z,44.83
2023-12-24T13:46:38.041Z,44.83
2023-12-24T13:49:11.611Z,44.92
2023-12-24T13:51:42.476Z,45.13
2023-12-24T13:54:13.325Z,45.00
2023-12-24T13:56:43.988Z,45.05
2023-12-24T13:59:14.815Z,44.97
2023-12-24T14:01:45.349Z,44.89
2023-12-24T14:04:16.212Z,45.00
2023-12-24T14:06:46.870Z,45.08
2023-12-24T14:09:17.374Z,44.96
2023-12-24T14:11:47.964Z,45.00
2023-12-24T14:14:18.664Z,44.67
2023-12-24T14:16:49.655Z,44.95
2023-12-24T14:19:20.920Z,44.55
2023-12-24T14:21:51.258Z,44.70
2023-12-24T14:24:22.103Z,45.03
2023-12-24T14:26:52.805Z,44.96
2023-12-24T14:29:23.396Z,44.99
2023-12-24T14:31:54.064Z,44.84
2023-12-24T14:34:24.823Z,45.29
2023-12-24T14:36:55.443Z,45.15
2023-12-24T14:39:26.483Z,44.99
2023-12-24T14:41:57.415Z,44.91
2023-12-24T14:44:27.995Z,45.13
2023-12-24T14:46:58.714Z,45.07
2023-12-24T14:49:30.367Z,45.35
2023-12-24T14:52:01.239Z,45.06
2023-12-24T14:54:31.819Z,45.13
2023-12-24T14:57:02.787Z,44.88
2023-12-24T14:59:33.366Z,44.96
2023-12-24T15:02:04.479Z,44.94
2023-12-24T15:04:35.068Z,45.06
2023-12-24T15:07:06.806Z,44.90
2023-12-24T15:09:37.053Z,44.80
2023-12-24T15:12:07.968Z,44.87
2023-12-24T15:14:38.800Z,44.73
2023-12-24T15:17:09.465Z,44.73
2023-12-24T15:19:40.010Z,44.73
2023-12-24T15:22:10.764Z,44.68
2023-12-24T15:24:41.594Z,44.67
2023-12-24T15:27:12.199Z,44.58
2023-12-24T15:29:42.818Z,44.60
2023-12-24T15:32:13.609Z,44.44
2023-12-24T15:34:44.035Z,44.58
2023-12-24T15:37:15.190Z,44.54
2023-12-24T15:39:45.806Z,44.52
2023-12-24T15:42:17.513Z,44.45
2023-12-24T15:44:48.120Z,44.63
2023-12-24T15:47:18.747Z,44.64
2023-12-24T15:49:52.587Z,44.76
2023-12-24T15:52:24.921Z,44.58
2023-12-24T15:54:55.687Z,44.87
2023-12-24T15:57:26.220Z,44.76
2023-12-24T15:59:56.760Z,44.84
2023-12-24T16:02:27.325Z,45.04
2023-12-24T16:04:57.977Z,44.88
2023-12-24T16:07:28.625Z,44.80
2023-12-24T16:09:59.301Z,44.91
2023-12-24T16:12:29.866Z,44.85
2023-12-24T16:15:00.651Z,44.94
2023-12-24T16:17:31.197Z,45.07
2023-12-24T16:20:01.892Z,45.07
2023-12-24T16:22:32.411Z,45.23
2023-12-24T16:25:03.033Z,44.99
2023-12-24T16:27:36.877Z,45.14
2023-12-24T16:30:11.579Z,45.10
2023-12-24T16:32:42.331Z,45.02
2023-12-24T16:35:13.781Z,45.20
2023-12-24T16:37:47.206Z,45.10
2023-12-24T16:40:17.989Z,45.25
2023-12-24T16:42:50.815Z,45.06
2023-12-24T16:45:21.869Z,45.36
2023-12-24T16:47:53.361Z,45.27
2023-12-24T16:50:24.237Z,45.18
2023-12-24T16:52:55.007Z,44.99
2023-12-24T16:55:25.909Z,45.31
2023-12-24T16:57:56.433Z,45.18
2023-12-24T17:00:27.455Z,45.26
2023-12-24T17:02:58.609Z,45.40
2023-12-24T17:05:29.671Z,45.46
2023-12-24T17:08:00.320Z,45.38
2023-12-24T17:10:30.920Z,45.30
2023-12-24T17:13:01.675Z,45.23
2023-12-24T17:15:32.380Z,45.40
2023-12-24T17:18:03.098Z,45.34
2023-12-24T17:20:33.940Z,45.13
2023-12-24T17:23:04.812Z,45.04
2023-12-24T17:25:35.385Z,44.90
2023-12-24T17:28:06.276Z,45.18
2023-12-24T17:30:36.962Z,45.18
2023-12-24T17:33:08.358Z,45.43
2023-12-24T17:35:39.401Z,45.25
2023-12-24T17:38:10.337Z,45.22
2023-12-24T17:40:41.038Z,45.13
2023-12-24T17:43:11.595Z,45.20
2023-12-24T17:45:43.584Z,45.15
2023-12-24T17:48:19.810Z,45.11
2023-12-24T17:50:53.076Z,45.26
2023-12-24T17:53:23.671Z,45.21
2023-12-24T17:55:54.413Z,45.20
2023-12-24T17:58:24.967Z,44.97
2023-12-24T18:00:55.568Z,45.29
2023-12-24T18:03:26.555Z,45.39
2023-12-24T18:05:57.617Z,45.37
2023-12-24T18:08:28.581Z,45.38
2023-12-24T18:10:59.184Z,45.17
2023-12-24T18:13:29.829Z,45.18
2023-12-24T18:16:00.323Z,45.27
2023-12-24T18:18:32.396Z,45.10
2023-12-24T18:21:03.447Z,45.08
2023-12-24T18:23:33.991Z,45.01
2023-12-24T18:26:06.472Z,45.09
2023-12-24T18:28:37.370Z,45.23
2023-12-24T18:31:08.071Z,44.96
2023-12-24T18:33:39.309Z,44.88
2023-12-24T18:36:10.257Z,45.16
2023-12-24T18:41:12.904Z,45.15
2023-12-24T18:43:43.412Z,45.33
2023-12-24T18:46:13.975Z,45.18
2023-12-24T18:48:44.513Z,45.07
2023-12-24T18:51:17.129Z,45.02
2023-12-24T18:56:31.750Z,44.98
2023-12-24T18:59:02.577Z,44.99
2023-12-24T19:01:33.201Z,45.15
2023-12-24T19:04:04.053Z,44.89
2023-12-24T19:06:38.757Z,45.19
2023-12-24T19:09:10.434Z,45.13
2023-12-24T19:11:40.900Z,45.09
2023-12-24T19:14:11.456Z,45.08
2023-12-24T19:16:42.025Z,45.13
2023-12-24T19:19:12.604Z,45.30
2023-12-24T19:21:43.213Z,45.20
2023-12-24T19:24:13.745Z,45.04
2023-12-24T19:26:45.714Z,45.01
2023-12-24T19:29:16.359Z,45.33
2023-12-24T19:31:47.032Z,45.27
2023-12-24T19:34:17.717Z,45.05
2023-12-24T19:36:49.793Z,45.04
2023-12-24T19:39:20.275Z,45.25
2023-12-24T19:41:50.848Z,45.20
2023-12-24T19:44:21.439Z,44.93
2023-12-24T19:46:52.027Z,45.13
2023-12-24T19:49:22.534Z,45.24
2023-12-24T19:51:53.305Z,45.25
2023-12-24T19:54:23.848Z,44.95
2023-12-24T19:56:54.577Z,45.26
2023-12-24T19:59:25.202Z,45.16
2023-12-24T20:01:55.713Z,45.24
2023-12-24T20:04:26.293Z,45.07
2023-12-24T20:06:56.908Z,44.98
2023-12-24T20:09:27.477Z,45.19
2023-12-24T20:11:58.302Z,45.30
2023-12-24T20:14:28.944Z,45.10
2023-12-24T20:16:59.760Z,45.08
2023-12-24T20:19:30.606Z,45.15
2023-12-24T20:22:01.212Z,45.10
2023-12-24T20:24:32.072Z,45.36
2023-12-24T20:27:02.950Z,45.28
2023-12-24T20:29:34.109Z,45.34
2023-12-24T20:32:04.760Z,45.25
2023-12-24T20:34:35.302Z,45.13
2023-12-24T20:37:06.090Z,45.20
2023-12-24T20:39:36.592Z,45.32
2023-12-24T20:42:07.758Z,45.42
2023-12-24T20:44:43.143Z,45.46
2023-12-24T20:47:13.764Z,45.31
2023-12-24T20:49:44.444Z,45.47
2023-12-24T20:52:15.235Z,45.33
2023-12-24T20:54:48.229Z,45.17
2023-12-24T20:57:18.964Z,45.04
2023-12-24T20:59:51.350Z,45.39
2023-12-24T21:02:22.245Z,45.28
2023-12-24T21:04:53.596Z,45.13
2023-12-24T21:07:24.032Z,44.88
2023-12-24T21:09:55.743Z,45.03
2023-12-24T21:12:27.448Z,45.12
2023-12-24T21:14:58.074Z,45.27
2023-12-24T21:17:28.868Z,45.30
2023-12-24T21:19:59.879Z,45.21
2023-12-24T21:22:30.409Z,45.16
2023-12-24T21:25:01.929Z,44.87
2023-12-24T21:27:32.745Z,44.81
2023-12-24T21:30:03.389Z,44.66
2023-12-24T21:32:34.041Z,44.57
2023-12-24T21:35:04.987Z,44.68
2023-12-24T21:37:35.518Z,44.53
2023-12-24T22:26:23.378Z,45.50
2023-12-24T22:28:53.957Z,45.88
2023-12-24T22:31:30.716Z,45.92
2023-12-24T22:50:34.809Z,44.28
2023-12-24T22:53:06.417Z,44.08
2023-12-24T22:55:36.945Z,44.53
2023-12-24T22:58:07.735Z,44.66
2023-12-24T23:00:38.526Z,44.84
2023-12-24T23:03:09.129Z,44.73
2023-12-24T23:05:39.864Z,44.41
2023-12-24T23:08:10.534Z,44.72
2023-12-24T23:10:41.107Z,44.58
2023-12-24T23:13:12.079Z,44.35
2023-12-24T23:15:42.595Z,44.46
2023-12-24T23:18:13.375Z,44.34
2023-12-24T23:20:44.211Z,44.39
2023-12-24T23:23:15.416Z,44.44
2023-12-24T23:25:46.077Z,44.40
2023-12-24T23:28:16.848Z,44.48
2023-12-24T23:30:47.888Z,44.54
2023-12-24T23:33:19.339Z,44.27
2023-12-24T23:35:57.825Z,44.45
2023-12-24T23:38:36.553Z,44.45
2023-12-24T23:41:07.457Z,44.20
2023-12-24T23:43:40.453Z,44.55
2023-12-24T23:46:15.051Z,44.25
2023-12-24T23:48:45.639Z,44.38
2023-12-24T23:51:16.958Z,44.20
2023-12-24T23:53:49.990Z,44.39
2023-12-24T23:56:22.215Z,44.32
2023-12-24T23:58:53.284Z,44.43
